Time;durP1;ratioP1;P1;durP2;ratioP2;P2;SDS_P1;SDS_P2;PMS_P1;PMS_P2;Temp;Humidity;BMP_temperature;BMP_pressure;BME280_temperature;BME280_humidity;BME280_pressure;Samples;Min_cycle;Max_cycle;Signal;HPM_P1;HPM_P2
2021/01/16 00:01:59;;;;;;;31.35;12.57;;;;;;;12.15;23.04;98368.88;5087288;28;20085;-80
2021/01/16 00:04:25;;;;;;;20.77;10.02;;;;;;;12.51;22.47;98378.19;5090415;28;20399;-80
2021/01/16 00:06:52;;;;;;;22.35;9.23;;;;;;;14.06;20.52;98376.72;5082511;28;20111;-80
2021/01/16 00:09:18;;;;;;;28.42;11.27;;;;;;;13.52;20.25;98382.94;5087573;28;20066;-80
2021/01/16 00:11:46;;;;;;;21.67;9.32;;;;;;;14.52;19.67;98370.25;5085907;28;20031;-80
2021/01/16 00:14:12;;;;;;;18.85;8.25;;;;;;;15.45;18.59;98374.44;5080995;28;20024;-80
2021/01/16 00:16:38;;;;;;;19.30;8.02;;;;;;;16.24;17.41;98372.53;5090133;28;20089;-80
2021/01/16 00:19:04;;;;;;;19.02;7.38;;;;;;;16.82;16.80;98363.81;5089534;28;20028;-80
2021/01/16 00:21:30;;;;;;;18.45;8.50;;;;;;;16.82;16.75;98372.13;5088583;28;20119;-80
2021/01/16 00:23:56;;;;;;;18.65;7.40;;;;;;;16.52;16.82;98372.94;5087689;28;20028;-80
2021/01/16 00:26:22;;;;;;;16.95;6.93;;;;;;;16.61;16.97;98374.63;5088074;28;20028;-80
2021/01/16 00:28:48;;;;;;;17.05;7.47;;;;;;;16.86;16.51;98382.09;5086417;28;20040;-80
2021/01/16 00:31:15;;;;;;;15.75;7.97;;;;;;;16.52;16.64;98384.03;5085926;28;20429;-80
2021/01/16 00:33:42;;;;;;;20.77;8.02;;;;;;;16.56;16.84;98378.53;5085623;28;20527;-80
2021/01/16 00:36:09;;;;;;;14.68;5.50;;;;;;;16.82;16.40;98380.44;5087957;28;20517;-80
2021/01/16 00:38:40;;;;;;;17.02;6.93;;;;;;;16.87;16.13;98378.16;5086510;28;20483;-80
2021/01/16 00:41:07;;;;;;;16.73;7.22;;;;;;;16.45;16.41;98377.56;5089321;28;20040;-80
2021/01/16 00:43:33;;;;;;;16.40;7.28;;;;;;;16.69;16.18;98373.53;5079951;28;20043;-80
2021/01/16 00:45:59;;;;;;;12.52;6.60;;;;;;;16.84;16.01;98365.03;5084241;28;20397;-80
2021/01/16 00:48:25;;;;;;;19.15;7.85;;;;;;;16.51;16.25;98371.34;5087595;28;20035;-80
2021/01/16 00:50:53;;;;;;;19.52;8.85;;;;;;;16.67;16.15;98373.91;5089889;28;20033;-80
2021/01/16 00:53:19;;;;;;;18.52;7.47;;;;;;;16.69;16.17;98377.13;5089917;28;20029;-80
2021/01/16 00:55:45;;;;;;;20.17;7.38;;;;;;;17.18;15.98;98377.69;5093092;28;20042;-80
2021/01/16 00:58:18;;;;;;;20.40;8.05;;;;;;;17.35;15.67;98378.25;5091556;28;20563;-80
2021/01/16 01:00:47;;;;;;;19.15;7.70;;;;;;;17.45;15.58;98383.91;5089917;28;20071;-80
2021/01/16 01:03:21;;;;;;;16.30;6.72;;;;;;;17.66;15.56;98386.09;5066308;28;20024;-79
2021/01/16 01:05:47;;;;;;;20.00;7.70;;;;;;;17.89;15.17;98384.72;5086755;28;20043;-79
2021/01/16 01:08:14;;;;;;;21.33;9.20;;;;;;;17.98;15.21;98391.91;5093166;28;20024;-80
2021/01/16 01:10:47;;;;;;;16.23;7.70;;;;;;;18.13;15.02;98390.84;5089033;28;20548;-80
2021/01/16 01:13:14;;;;;;;16.17;7.07;;;;;;;17.93;14.73;98385.53;5085631;28;20110;-79
2021/01/16 01:15:40;;;;;;;16.65;8.25;;;;;;;17.38;15.27;98386.63;5094349;28;20031;-79
2021/01/16 01:18:07;;;;;;;16.45;6.93;;;;;;;17.08;15.55;98381.13;5087001;28;20032;-79
2021/01/16 01:20:33;;;;;;;13.75;6.57;;;;;;;17.09;15.42;98379.97;5086665;28;20040;-79
2021/01/16 01:23:00;;;;;;;13.18;6.10;;;;;;;16.78;15.65;98383.16;5091114;28;20060;-79
2021/01/16 01:25:26;;;;;;;13.48;6.28;;;;;;;16.73;15.67;98379.94;5090209;28;20024;-79
2021/01/16 01:27:55;;;;;;;14.05;6.32;;;;;;;16.80;15.62;98380.84;5090009;28;20063;-79
2021/01/16 01:30:23;;;;;;;11.10;4.22;;;;;;;16.84;15.47;98384.44;5093045;28;20404;-79
2021/01/16 01:32:49;;;;;;;13.15;5.38;;;;;;;16.63;15.61;98375.84;5094702;28;20506;-79
2021/01/16 01:35:17;;;;;;;11.70;5.22;;;;;;;16.43;15.46;98374.34;5089833;28;20078;-79
2021/01/16 01:37:44;;;;;;;12.15;5.03;;;;;;;15.90;15.98;98391.03;5082930;28;20033;-79
2021/01/16 01:40:12;;;;;;;9.48;4.22;;;;;;;15.95;16.14;98387.13;5051118;28;20507;-80
2021/01/16 01:42:40;;;;;;;10.77;4.60;;;;;;;15.58;16.44;98392.47;5071311;28;20088;-79
2021/01/16 01:45:09;;;;;;;17.58;5.40;;;;;;;15.44;16.39;98395.00;5056770;28;20512;-80
2021/01/16 01:47:40;;;;;;;11.68;4.65;;;;;;;15.00;17.07;98394.56;5071467;28;20491;-79
2021/01/16 01:50:08;;;;;;;9.75;4.72;;;;;;;14.87;17.02;98397.81;5070882;28;20499;-79
2021/01/16 01:52:36;;;;;;;10.25;4.43;;;;;;;15.39;16.47;98391.69;5064145;28;20033;-80
2021/01/16 01:55:04;;;;;;;10.20;4.63;;;;;;;15.61;16.55;98391.72;5064433;28;20384;-79
2021/01/16 01:57:34;;;;;;;10.38;3.63;;;;;;;15.92;15.97;98387.09;5061922;28;20035;-79
2021/01/16 02:00:03;;;;;;;9.20;4.03;;;;;;;16.02;15.98;98391.97;5064593;28;20443;-79
2021/01/16 02:02:34;;;;;;;12.65;4.85;;;;;;;16.14;15.94;98397.31;5070960;28;20029;-79
2021/01/16 02:05:03;;;;;;;;;;;;;;;15.67;15.80;98395.78;5063453;28;20031;-79
2021/01/16 02:07:37;;;;;;;9.05;3.58;;;;;;;16.00;15.89;98391.56;5059038;28;19916;-79
2021/01/16 02:10:05;;;;;;;9.38;3.70;;;;;;;15.81;15.95;98392.44;5064341;28;20025;-79
2021/01/16 02:12:32;;;;;;;9.75;4.35;;;;;;;16.05;15.69;98388.47;5048622;28;20441;-79
2021/01/16 02:15:13;;;;;;;10.75;4.15;;;;;;;16.42;15.61;98387.44;5061853;28;20081;-79
2021/01/16 02:17:42;;;;;;;7.78;3.80;;;;;;;16.86;15.33;98389.59;5064768;28;20108;-79
2021/01/16 02:20:14;;;;;;;9.48;3.28;;;;;;;16.88;14.90;98390.00;5060046;28;20374;-79
2021/01/16 02:22:59;;;;;;;9.63;4.32;;;;;;;16.83;15.25;98384.78;5060659;28;22304;-79
2021/01/16 02:25:57;;;;;;;8.80;3.75;;;;;;;16.98;14.87;98378.25;5057515;28;20041;-79
2021/01/16 02:28:30;;;;;;;9.50;4.28;;;;;;;17.23;14.72;98379.31;5042213;28;20037;-79
2021/01/16 02:30:56;;;;;;;5.53;2.83;;;;;;;17.38;14.86;98380.25;5060724;28;20068;-80
2021/01/16 02:33:25;;;;;;;7.88;3.83;;;;;;;17.55;14.74;98382.44;5064754;28;20032;-79
2021/01/16 02:36:27;;;;;;;9.13;4.32;;;;;;;17.66;14.40;98375.00;5068999;28;20028;-79
2021/01/16 02:39:08;;;;;;;12.18;4.03;;;;;;;17.79;14.44;98379.06;5060715;28;20025;-79
2021/01/16 02:42:22;;;;;;;13.80;4.80;;;;;;;17.44;14.61;98376.75;5084952;28;20507;-79
2021/01/16 02:45:10;;;;;;;11.75;5.03;;;;;;;17.01;14.96;98380.28;4996440;28;20622;-80
2021/01/16 02:48:02;;;;;;;9.23;4.32;;;;;;;16.62;15.42;98387.34;5089465;28;20036;-79
2021/01/16 02:50:30;;;;;;;10.60;5.03;;;;;;;16.14;15.99;98387.03;5088141;28;20048;-80
2021/01/16 02:53:02;;;;;;;11.70;4.32;;;;;;;16.03;15.92;98382.50;5091297;28;20028;-80
2021/01/16 02:55:29;;;;;;;11.38;4.95;;;;;;;15.41;16.50;98376.31;5088258;28;20103;-79
2021/01/16 02:57:55;;;;;;;11.25;4.72;;;;;;;15.67;16.43;98375.59;5087768;28;20536;-79
2021/01/16 03:00:22;;;;;;;9.55;4.20;;;;;;;15.76;16.14;98382.50;5089350;28;20038;-79
2021/01/16 03:02:48;;;;;;;10.43;3.97;;;;;;;15.58;16.39;98384.16;5086133;28;20434;-79
2021/01/16 03:05:17;;;;;;;9.20;4.50;;;;;;;15.22;16.68;98379.94;5090366;28;20115;-80
2021/01/16 03:07:45;;;;;;;9.73;4.53;;;;;;;15.52;16.55;98368.25;5087090;28;20035;-79
2021/01/16 03:10:11;;;;;;;10.07;4.03;;;;;;;15.68;16.13;98375.22;5090028;28;20706;-80
2021/01/16 03:12:38;;;;;;;11.52;4.38;;;;;;;15.70;16.23;98377.66;5089497;28;20444;-79
2021/01/16 03:15:12;;;;;;;9.52;3.72;;;;;;;15.84;15.95;98367.59;5086617;28;20403;-79
2021/01/16 03:17:51;;;;;;;8.55;3.53;;;;;;;16.39;15.65;98362.44;5086875;28;20159;-79
2021/01/16 03:20:23;;;;;;;6.55;3.03;;;;;;;16.99;15.11;98366.75;5080486;28;20037;-79
2021/01/16 03:22:50;;;;;;;7.13;3.00;;;;;;;17.34;14.66;98363.56;5075385;28;20531;-79
2021/01/16 03:25:21;;;;;;;9.32;4.03;;;;;;;17.68;14.59;98367.06;5088724;28;20024;-79
2021/01/16 03:27:48;;;;;;;;;;;;;;;18.07;14.41;98356.25;5084417;28;20068;-79
2021/01/16 03:30:15;;;;;;;9.00;3.97;;;;;;;18.46;13.99;98360.09;5085760;28;20019;-79
2021/01/16 03:32:43;;;;;;;8.15;3.58;;;;;;;18.62;14.08;98355.78;5089034;28;20028;-79
2021/01/16 03:35:10;;;;;;;8.40;3.63;;;;;;;18.77;13.91;98358.63;5082329;28;20039;-80
2021/01/16 03:37:36;;;;;;;16.08;6.28;;;;;;;18.76;13.85;98365.41;5077436;28;20034;-80
2021/01/16 03:40:05;;;;;;;51.05;18.33;;;;;;;18.60;14.05;98358.16;5087193;28;20127;-79
2021/01/16 03:42:31;;;;;;;54.92;20.23;;;;;;;18.55;14.03;98354.97;5090111;28;20054;-79
2021/01/16 03:44:58;;;;;;;41.63;16.00;;;;;;;18.34;14.36;98354.84;5077246;28;20120;-79
2021/01/16 03:47:24;;;;;;;26.33;10.35;;;;;;;18.04;14.41;98357.81;5089889;28;20396;-79
2021/01/16 03:49:50;;;;;;;17.80;6.07;;;;;;;17.28;15.16;98354.00;5072818;28;20170;-78
2021/01/16 03:52:37;;;;;;;15.32;6.43;;;;;;;16.84;15.34;98359.47;5063394;28;20036;-79
2021/01/16 03:55:05;;;;;;;11.15;4.68;;;;;;;16.98;15.61;98353.28;5064423;28;20113;-79
2021/01/16 03:57:31;;;;;;;9.13;4.63;;;;;;;17.11;15.33;98343.50;5063700;28;20500;-79
2021/01/16 03:59:57;;;;;;;29.27;8.60;;;;;;;17.24;15.32;98348.44;5068284;28;20043;-79
2021/01/16 04:02:24;;;;;;;30.73;9.32;;;;;;;16.89;15.51;98358.34;5063761;28;20067;-80
2021/01/16 04:04:50;;;;;;;36.88;10.90;;;;;;;16.73;15.64;98353.03;5071287;28;20040;-80
2021/01/16 04:07:17;;;;;;;32.08;10.00;;;;;;;16.92;15.99;98352.81;5071434;28;20032;-80
2021/01/16 04:09:46;;;;;;;23.25;8.10;;;;;;;17.34;15.44;98349.69;5082734;28;20099;-80
2021/01/16 04:12:13;;;;;;;28.50;9.70;;;;;;;17.53;15.23;98357.03;5085319;28;20430;-79
2021/01/16 04:14:39;;;;;;;37.95;12.63;;;;;;;17.78;15.11;98344.16;5086354;28;20107;-79
2021/01/16 04:17:10;;;;;;;22.35;7.63;;;;;;;17.89;15.01;98350.59;5081239;28;20047;-79
2021/01/16 04:19:36;;;;;;;11.05;4.15;;;;;;;18.09;14.89;98342.75;5068906;28;20537;-79
2021/01/16 04:22:05;;;;;;;13.82;5.20;;;;;;;18.22;14.49;98330.97;5088320;28;20066;-79
2021/01/16 04:24:31;;;;;;;12.35;5.25;;;;;;;18.29;14.64;98344.09;5088362;28;20411;-79
2021/01/16 04:26:58;;;;;;;11.25;6.00;;;;;;;18.27;14.33;98338.13;5068616;28;20032;-79
2021/01/16 04:29:24;;;;;;;14.30;6.20;;;;;;;18.25;14.52;98338.50;5086677;28;20028;-79
2021/01/16 04:31:50;;;;;;;24.48;9.32;;;;;;;17.90;14.69;98341.06;5093768;28;20480;-79
2021/01/16 04:34:16;;;;;;;13.73;5.88;;;;;;;17.09;15.54;98337.56;5091886;28;20028;-79
2021/01/16 04:36:43;;;;;;;14.25;5.53;;;;;;;17.10;15.62;98333.59;5094806;28;20151;-79
2021/01/16 04:39:09;;;;;;;8.98;3.88;;;;;;;17.23;15.42;98335.72;5089077;28;20772;-79
2021/01/16 04:41:36;;;;;;;10.45;3.88;;;;;;;17.31;15.34;98324.69;5090377;28;20151;-79
2021/01/16 04:44:04;;;;;;;8.48;3.55;;;;;;;17.46;15.15;98327.19;5087398;28;20028;-79
2021/01/16 04:46:31;;;;;;;10.55;3.88;;;;;;;17.47;15.12;98334.34;5083205;28;20028;-79
2021/01/16 04:49:06;;;;;;;11.48;4.68;;;;;;;17.01;15.62;98327.56;5069302;28;20115;-79
2021/01/16 04:51:35;;;;;;;10.60;4.55;;;;;;;16.57;16.05;98331.03;5089692;28;20498;-79
2021/01/16 04:54:03;;;;;;;12.77;5.07;;;;;;;16.11;16.37;98339.88;5093414;28;20028;-79
2021/01/16 04:56:30;;;;;;;6.40;3.78;;;;;;;15.41;17.01;98345.88;5092094;28;20111;-79
2021/01/16 04:58:57;;;;;;;11.80;4.65;;;;;;;15.63;17.20;98334.06;5089888;28;20089;-79
2021/01/16 05:01:27;;;;;;;9.43;3.58;;;;;;;15.73;17.12;98336.16;5083473;28;20029;-79
2021/01/16 05:03:56;;;;;;;6.53;2.72;;;;;;;15.95;16.79;98336.50;5093486;28;20971;-79
2021/01/16 05:06:26;;;;;;;5.45;2.50;;;;;;;15.75;16.95;98339.34;5093338;28;20522;-79
2021/01/16 05:08:54;;;;;;;5.47;2.53;;;;;;;15.88;16.96;98335.22;5091466;28;20047;-79
2021/01/16 05:11:40;;;;;;;5.75;2.08;;;;;;;15.64;17.07;98335.63;5093237;28;20047;-79
2021/01/16 05:14:10;;;;;;;3.72;1.98;;;;;;;15.73;17.36;98336.16;5080180;28;20028;-79
2021/01/16 05:16:44;;;;;;;6.22;2.15;;;;;;;15.25;17.57;98348.00;5070714;28;20067;-79
2021/01/16 05:19:17;;;;;;;2.15;1.80;;;;;;;14.90;18.10;98347.34;5089886;28;20047;-79
2021/01/16 05:21:43;;;;;;;4.03;1.80;;;;;;;15.21;17.87;98345.16;5081809;28;20032;-79
2021/01/16 05:24:14;;;;;;;3.08;1.63;;;;;;;15.01;17.93;98348.31;5073484;28;20102;-79
2021/01/16 05:27:00;;;;;;;5.55;2.15;;;;;;;14.97;18.11;98350.22;5090097;28;20463;-79
2021/01/16 05:29:27;;;;;;;4.18;1.90;;;;;;;15.20;18.00;98351.06;5092865;28;20024;-79
2021/01/16 05:31:54;;;;;;;5.45;2.17;;;;;;;14.93;18.29;98341.09;5088737;28;20036;-79
2021/01/16 05:34:23;;;;;;;5.50;2.78;;;;;;;14.87;18.36;98348.06;5090979;28;20110;-79
2021/01/16 05:36:50;;;;;;;7.13;2.50;;;;;;;14.90;18.13;98339.84;5086067;28;20028;-79
2021/01/16 05:39:18;;;;;;;5.65;2.40;;;;;;;15.08;18.15;98342.94;5089620;28;20031;-80
2021/01/16 05:41:46;;;;;;;4.50;2.30;;;;;;;15.61;17.63;98346.66;5089391;28;20062;-79
2021/01/16 05:44:13;;;;;;;5.45;2.53;;;;;;;15.41;17.45;98340.34;5090100;28;20043;-79
2021/01/16 05:46:44;;;;;;;6.47;3.30;;;;;;;15.17;17.79;98341.53;5093730;28;20036;-79
2021/01/16 05:49:17;;;;;;;6.43;2.88;;;;;;;15.27;17.72;98339.31;5088182;28;20039;-79
2021/01/16 05:51:44;;;;;;;5.03;2.58;;;;;;;16.02;17.11;98342.13;5086126;28;20028;-80
2021/01/16 05:54:12;;;;;;;6.30;2.55;;;;;;;16.08;16.90;98346.19;5078159;28;20036;-80
2021/01/16 05:56:39;;;;;;;9.18;3.58;;;;;;;15.00;18.00;98353.06;5087478;28;20072;-79
2021/01/16 05:59:19;;;;;;;5.93;2.88;;;;;;;14.49;18.57;98346.16;5085402;28;20042;-80
2021/01/16 06:01:50;;;;;;;6.20;2.83;;;;;;;14.63;18.64;98346.44;5084531;28;20078;-79
2021/01/16 06:04:20;;;;;;;9.43;3.55;;;;;;;14.40;18.65;98335.28;5082295;28;20412;-79
2021/01/16 06:06:47;;;;;;;3.47;2.20;;;;;;;14.89;18.56;98341.00;5085366;28;20199;-80
2021/01/16 06:09:21;;;;;;;5.72;3.05;;;;;;;14.81;18.49;98347.56;5064557;28;20032;-80
2021/01/16 06:11:49;;;;;;;10.90;4.60;;;;;;;13.28;20.37;98349.22;5089072;28;20029;-79
2021/01/16 06:14:17;;;;;;;10.32;4.88;;;;;;;11.06;22.91;98363.34;5091233;28;20449;-79
2021/01/16 06:16:51;;;;;;;6.45;3.13;;;;;;;13.57;20.45;98357.84;5088071;28;20069;-79
2021/01/16 06:19:23;;;;;;;9.52;3.72;;;;;;;14.32;19.15;98361.19;5089145;28;20035;-79
2021/01/16 06:21:50;;;;;;;6.32;3.83;;;;;;;15.06;18.60;98348.84;5092152;28;20032;-79
2021/01/16 06:24:21;;;;;;;6.13;3.80;;;;;;;15.05;18.52;98350.00;5063156;28;20079;-79
2021/01/16 06:26:58;;;;;;;5.60;3.38;;;;;;;15.35;18.30;98352.09;5066763;28;20106;-80
2021/01/16 06:29:29;;;;;;;16.20;5.60;;;;;;;15.60;18.10;98343.09;5087556;28;20132;-79
2021/01/16 06:32:07;;;;;;;11.15;5.20;;;;;;;16.01;17.54;98341.31;5096389;28;20042;-80
2021/01/16 06:34:43;;;;;;;9.18;4.93;;;;;;;15.80;17.79;98346.53;5069529;28;20111;-79
2021/01/16 06:37:09;;;;;;;9.27;4.75;;;;;;;15.80;17.80;98336.28;5093169;28;20494;-79
2021/01/16 06:39:43;;;;;;;14.13;5.30;;;;;;;15.87;17.80;98339.16;5085205;28;20056;-79
2021/01/16 06:42:19;;;;;;;8.05;3.53;;;;;;;16.17;17.62;98328.13;5088526;28;20040;-79
2021/01/16 06:44:46;;;;;;;7.13;3.67;;;;;;;16.62;16.97;98338.22;5085905;28;20085;-80
2021/01/16 06:47:12;;;;;;;6.25;3.75;;;;;;;16.74;17.05;98343.50;5084974;28;20040;-79
2021/01/16 06:49:38;;;;;;;9.10;4.35;;;;;;;16.97;16.79;98326.72;5090938;28;20421;-79
2021/01/16 06:52:14;;;;;;;10.80;5.05;;;;;;;16.93;16.66;98328.66;5090053;28;20040;-79
2021/01/16 06:54:40;;;;;;;11.73;4.43;;;;;;;16.80;16.89;98335.66;5084532;28;20036;-79
2021/01/16 06:57:08;;;;;;;11.73;4.93;;;;;;;17.03;16.95;98334.34;5088915;28;20036;-79
2021/01/16 06:59:39;;;;;;;9.77;4.57;;;;;;;16.75;17.16;98334.03;5088395;28;20047;-79
2021/01/16 07:02:40;;;;;;;12.30;5.47;;;;;;;16.29;17.55;98335.41;5089299;28;20043;-78
2021/01/16 07:05:20;;;;;;;9.77;5.30;;;;;;;16.22;17.85;98335.31;5084646;28;20767;-79
2021/01/16 07:07:51;;;;;;;26.55;9.57;;;;;;;17.04;16.98;98330.38;5086024;28;20702;-78
2021/01/16 07:10:21;;;;;;;14.23;6.25;;;;;;;17.52;16.65;98327.69;5085822;28;20035;-78
2021/01/16 07:12:50;;;;;;;13.93;6.93;;;;;;;16.93;17.11;98329.47;5064697;28;20475;-79
2021/01/16 07:15:18;;;;;;;15.45;5.45;;;;;;;16.36;17.67;98333.50;5089264;28;20059;-79
2021/01/16 07:17:48;;;;;;;11.98;5.03;;;;;;;16.54;17.62;98336.56;5087188;28;20592;-79
2021/01/16 07:20:15;;;;;;;9.50;4.88;;;;;;;16.39;17.77;98330.00;5088152;28;20048;-80
2021/01/16 07:22:43;;;;;;;12.15;6.00;;;;;;;16.34;18.00;98333.09;5091382;28;20043;-80
2021/01/16 07:25:12;;;;;;;13.55;6.13;;;;;;;15.96;18.40;98324.25;5087771;28;20036;-81
2021/01/16 07:27:39;;;;;;;14.98;6.72;;;;;;;15.58;19.23;98323.28;5093205;28;20040;-81
2021/01/16 07:30:10;;;;;;;14.05;6.30;;;;;;;14.59;19.92;98319.88;5086883;28;20039;-81
2021/01/16 07:32:44;;;;;;;19.83;8.27;;;;;;;14.65;19.98;98319.22;5086809;28;20058;-80
2021/01/16 07:35:20;;;;;;;17.35;7.88;;;;;;;14.63;20.32;98315.22;5068616;28;20024;-80
2021/01/16 07:37:49;;;;;;;13.75;7.25;;;;;;;15.04;19.85;98322.72;5085914;28;20033;-81
2021/01/16 07:40:20;;;;;;;15.65;7.50;;;;;;;14.88;20.12;98294.38;5066856;28;20044;-81
2021/01/16 07:42:56;;;;;;;14.32;6.45;;;;;;;14.92;20.11;98318.16;5089388;28;20038;-80
2021/01/16 07:45:31;;;;;;;17.10;8.27;;;;;;;15.16;19.84;98308.72;5087415;28;20020;-80
2021/01/16 07:47:59;;;;;;;16.52;8.55;;;;;;;15.55;19.47;98312.16;5085427;28;20020;-79
2021/01/16 07:50:28;;;;;;;13.20;6.75;;;;;;;15.18;19.79;98312.72;5084269;28;20037;-80
2021/01/16 07:53:01;;;;;;;12.73;5.93;;;;;;;14.91;20.23;98313.00;5073868;28;20036;-80
2021/01/16 07:55:36;;;;;;;16.35;7.88;;;;;;;14.16;20.83;98315.44;5092539;28;20059;-80
2021/01/16 07:58:32;;;;;;;14.75;7.18;;;;;;;14.45;20.88;98314.88;5086881;28;20391;-79
2021/01/16 08:01:03;;;;;;;19.60;8.80;;;;;;;14.07;21.49;98318.38;5091292;28;20036;-79
2021/01/16 08:04:07;;;;;;;18.13;7.78;;;;;;;14.45;20.91;98321.19;5090704;28;20111;-79
2021/01/16 08:06:52;;;;;;;15.73;7.65;;;;;;;13.77;21.67;98322.81;5086398;28;20032;-80
2021/01/16 08:09:36;;;;;;;16.42;7.80;;;;;;;14.76;20.66;98308.38;5085838;28;20752;-80
2021/01/16 08:12:07;;;;;;;16.90;7.97;;;;;;;14.06;21.28;98325.06;5085150;28;20033;-79
2021/01/16 08:14:33;;;;;;;16.10;9.45;;;;;;;14.83;20.87;98308.50;5088087;28;20024;-79
2021/01/16 08:17:00;;;;;;;14.30;6.80;;;;;;;14.84;20.95;98313.66;5087564;28;20036;-78
2021/01/16 08:19:40;;;;;;;17.45;8.05;;;;;;;15.06;20.64;98315.66;5088691;28;20050;-79
2021/01/16 08:22:18;;;;;;;15.88;7.47;;;;;;;15.19;20.34;98300.47;5070325;28;20036;-79
2021/01/16 08:25:02;;;;;;;21.42;8.35;;;;;;;15.93;19.68;98295.34;5090045;28;20484;-79
2021/01/16 08:27:33;;;;;;;18.15;9.65;;;;;;;15.04;20.85;98292.31;5092164;28;20073;-78
2021/01/16 08:30:11;;;;;;;19.30;9.57;;;;;;;14.93;20.70;98288.56;5088747;28;20039;-79
2021/01/16 08:32:54;;;;;;;14.63;7.68;;;;;;;15.12;20.83;98300.34;5088609;28;20040;-79
2021/01/16 08:35:39;;;;;;;18.17;7.72;;;;;;;15.01;21.06;98299.38;5097368;28;20056;-78
2021/01/16 08:38:22;;;;;;;15.57;8.32;;;;;;;15.12;20.82;98297.59;5090555;28;20107;-79
2021/01/16 08:41:02;;;;;;;17.83;8.02;;;;;;;13.38;22.76;98312.81;5087903;28;20052;-79
2021/01/16 08:43:43;;;;;;;20.33;9.48;;;;;;;13.16;23.21;98314.28;5071291;28;20036;-79
2021/01/16 08:46:16;;;;;;;18.50;9.13;;;;;;;13.15;23.33;98305.19;5089063;28;20101;-78
2021/01/16 08:48:56;;;;;;;17.88;9.73;;;;;;;13.79;22.59;98309.50;5074435;28;20407;-78
2021/01/16 08:51:27;;;;;;;19.98;9.57;;;;;;;13.08;23.32;98316.03;5093970;28;20126;-79
2021/01/16 08:54:20;;;;;;;18.25;9.15;;;;;;;12.74;24.04;98315.88;5092423;28;20024;-79
2021/01/16 08:57:11;;;;;;;18.08;8.75;;;;;;;13.24;23.49;98307.75;5083282;28;20048;-79
2021/01/16 08:59:38;;;;;;;;;;;;;;;13.35;22.92;98316.31;5087590;28;20511;-79
2021/01/16 09:02:13;;;;;;;20.60;9.88;;;;;;;13.48;22.87;98310.34;5094361;28;19943;-79
2021/01/16 09:04:44;;;;;;;19.05;9.15;;;;;;;12.91;23.52;98312.78;5097025;28;20102;-79
2021/01/16 09:07:22;;;;;;;21.38;10.48;;;;;;;13.01;23.80;98313.06;5069883;28;20482;-79
2021/01/16 09:09:56;;;;;;;17.75;8.07;;;;;;;13.18;23.89;98322.19;5090125;28;20032;-79
2021/01/16 09:12:33;;;;;;;16.05;8.52;;;;;;;13.11;23.67;98328.31;5072939;28;20056;-80
2021/01/16 09:15:19;;;;;;;15.63;8.35;;;;;;;13.63;22.47;98323.28;5072301;28;20028;-80
2021/01/16 09:18:06;;;;;;;15.30;7.40;;;;;;;13.98;22.80;98320.53;5092605;28;20500;-79
2021/01/16 09:20:35;;;;;;;21.15;8.93;;;;;;;13.80;22.90;98313.84;5090745;28;20118;-80
2021/01/16 09:23:19;;;;;;;17.20;8.18;;;;;;;14.39;22.14;98316.34;5093908;28;20028;-79
2021/01/16 09:25:51;;;;;;;14.90;8.23;;;;;;;14.11;22.35;98308.22;5083480;28;20072;-79
2021/01/16 09:28:37;;;;;;;15.18;7.15;;;;;;;12.60;24.07;98316.31;5093475;28;20043;-79
2021/01/16 09:31:14;;;;;;;12.73;6.55;;;;;;;12.59;24.04;98306.44;5091870;28;20047;-80
2021/01/16 09:33:44;;;;;;;13.50;6.80;;;;;;;12.65;24.17;98306.97;5090687;28;20496;-80
2021/01/16 09:36:11;;;;;;;14.90;7.05;;;;;;;12.96;23.72;98316.09;5066041;28;20050;-79
2021/01/16 09:38:41;;;;;;;13.80;7.28;;;;;;;12.83;24.04;98311.81;5093062;28;20084;-81
2021/01/16 09:41:07;;;;;;;11.93;6.63;;;;;;;13.06;23.79;98314.78;5092847;28;20119;-81
2021/01/16 09:43:43;;;;;;;13.23;7.22;;;;;;;12.00;25.15;98305.50;5071198;28;20107;-81
2021/01/16 09:46:09;;;;;;;15.02;8.00;;;;;;;12.07;25.55;98306.50;5069366;28;20029;-81
2021/01/16 09:48:42;;;;;;;12.98;6.95;;;;;;;13.26;23.59;98312.91;5092195;28;20127;-82
2021/01/16 09:51:13;;;;;;;14.00;6.95;;;;;;;13.39;23.52;98306.97;5084279;28;20040;-81
2021/01/16 09:53:40;;;;;;;11.80;6.50;;;;;;;13.25;23.57;98303.88;5064878;28;20114;-80
2021/01/16 09:56:07;;;;;;;16.85;7.75;;;;;;;13.24;23.64;98301.44;5072626;28;20082;-81
2021/01/16 09:58:40;;;;;;;14.25;7.20;;;;;;;12.90;23.85;98291.91;5086566;28;20028;-81
2021/01/16 10:01:16;;;;;;;15.73;7.70;;;;;;;12.25;24.99;98291.31;5092023;28;20365;-80
2021/01/16 10:03:43;;;;;;;11.05;6.07;;;;;;;11.65;25.97;98292.25;5069170;28;20024;-81
2021/01/16 10:06:11;;;;;;;17.27;7.78;;;;;;;12.95;24.25;98292.44;5089672;28;20024;-80
2021/01/16 10:08:40;;;;;;;17.50;7.65;;;;;;;13.35;23.68;98289.53;5084194;28;20036;-81
2021/01/16 10:11:06;;;;;;;13.25;6.68;;;;;;;12.31;25.00;98295.44;5090698;28;20036;-80
2021/01/16 10:13:37;;;;;;;15.25;8.25;;;;;;;12.73;24.34;98295.78;5074133;28;20365;-80
2021/01/16 10:16:05;;;;;;;;;;;;;;;13.07;23.73;98289.63;5087895;28;20069;-80
2021/01/16 10:18:33;;;;;;;11.20;6.07;;;;;;;13.78;23.12;98280.28;5091243;28;19920;-79
2021/01/16 10:21:20;;;;;;;14.13;6.38;;;;;;;13.57;23.06;98290.84;5089657;28;20093;-79
2021/01/16 10:23:46;;;;;;;12.77;6.25;;;;;;;14.52;22.17;98279.91;5088647;28;20028;-79
2021/01/16 10:26:17;;;;;;;15.88;6.97;;;;;;;14.45;21.80;98282.53;5092373;28;20062;-79
2021/01/16 10:28:49;;;;;;;14.00;7.75;;;;;;;13.63;22.79;98278.34;5085141;28;20024;-78
2021/01/16 10:31:23;;;;;;;12.80;6.18;;;;;;;13.94;22.51;98272.75;5090901;28;20044;-79
2021/01/16 10:33:49;;;;;;;13.75;7.25;;;;;;;14.66;21.88;98261.97;5088447;28;20097;-79
2021/01/16 10:36:19;;;;;;;11.98;6.57;;;;;;;14.39;22.16;98270.19;5089477;28;20035;-79
2021/01/16 10:38:51;;;;;;;14.70;7.80;;;;;;;14.42;21.94;98252.88;5086056;28;20068;-79
2021/01/16 10:41:30;;;;;;;14.68;6.97;;;;;;;14.49;22.11;98264.06;5085333;28;20070;-80
2021/01/16 10:44:05;;;;;;;16.13;8.27;;;;;;;14.65;21.66;98241.88;5086619;28;20113;-79
2021/01/16 10:46:51;;;;;;;17.25;7.35;;;;;;;14.56;22.01;98251.56;5090064;28;20039;-78
2021/01/16 10:49:23;;;;;;;15.77;8.43;;;;;;;14.02;22.48;98246.91;5090094;28;20028;-78
2021/01/16 10:52:04;;;;;;;12.48;6.57;;;;;;;15.12;21.52;98247.81;5088156;28;20040;-79
2021/01/16 10:54:31;;;;;;;17.13;8.27;;;;;;;13.82;22.61;98248.84;5085689;28;20069;-79
2021/01/16 10:57:05;;;;;;;13.60;7.55;;;;;;;13.73;22.93;98244.69;5091468;28;20029;-79
2021/01/16 10:59:34;;;;;;;15.00;6.88;;;;;;;15.01;21.70;98237.75;5092598;28;20056;-79
2021/01/16 11:02:13;;;;;;;13.82;7.68;;;;;;;15.47;21.07;98227.44;5088887;28;20028;-80
2021/01/16 11:04:48;;;;;;;17.75;7.90;;;;;;;14.58;22.30;98232.66;5084439;28;20039;-79
2021/01/16 11:07:29;;;;;;;16.10;6.97;;;;;;;14.35;22.21;98227.88;5087142;28;20035;-78
2021/01/16 11:10:03;;;;;;;;;;;;;;;14.71;21.86;98218.28;5086031;28;20032;-80
2021/01/16 11:12:29;;;;;;;17.83;7.72;;;;;;;15.76;21.12;98221.13;5089413;28;20292;-80
2021/01/16 11:14:56;;;;;;;15.82;7.57;;;;;;;14.46;22.13;98204.03;5084905;28;20029;-79
2021/01/16 11:17:47;;;;;;;20.50;7.68;;;;;;;14.38;22.51;98218.06;5092081;28;20036;-79
2021/01/16 11:20:22;;;;;;;15.40;8.02;;;;;;;14.52;22.10;98215.56;5087956;28;20464;-79
2021/01/16 11:23:24;;;;;;;18.65;8.75;;;;;;;14.73;21.94;98210.41;5090258;28;20496;-79
2021/01/16 11:25:50;;;;;;;15.27;7.15;;;;;;;16.54;20.33;98209.06;5048215;28;20059;-79
2021/01/16 11:28:21;;;;;;;14.80;7.20;;;;;;;17.51;19.17;98204.75;5087659;28;20391;-79
2021/01/16 11:30:49;;;;;;;14.05;7.05;;;;;;;17.47;19.20;98214.19;5091325;28;20040;-79
2021/01/16 11:33:26;;;;;;;20.92;10.40;;;;;;;16.58;19.89;98207.13;5077458;28;20044;-79
2021/01/16 11:36:17;;;;;;;13.40;6.78;;;;;;;17.85;18.88;98199.78;5074688;28;20028;-79
2021/01/16 11:38:45;;;;;;;13.30;7.00;;;;;;;16.95;19.41;98207.84;5080320;28;20051;-79
2021/01/16 11:41:13;;;;;;;13.80;7.53;;;;;;;16.66;19.76;98197.69;5092461;28;20051;-79
2021/01/16 11:43:40;;;;;;;13.57;7.28;;;;;;;16.23;20.42;98193.66;5089512;28;21492;-79
2021/01/16 11:46:12;;;;;;;17.38;9.70;;;;;;;15.65;20.70;98196.09;5087109;28;20055;-79
2021/01/16 11:48:40;;;;;;;14.18;7.07;;;;;;;17.14;19.85;98196.53;5079260;28;20032;-80
2021/01/16 11:51:18;;;;;;;17.05;8.48;;;;;;;16.14;20.53;98186.81;5087744;28;20058;-79